createdAt,value
2023-01-12T05:00:31.180Z,24.58
2023-01-12T05:03:00.831Z,24.59
2023-01-12T05:05:31.109Z,24.28
2023-01-12T05:08:20.424Z,23.95
2023-01-12T05:10:54.595Z,23.62
2023-01-12T05:13:22.438Z,23.30
2023-01-12T05:15:49.473Z,22.87
2023-01-12T05:18:16.366Z,23.10
2023-01-12T05:20:43.198Z,22.99
2023-01-12T05:23:09.992Z,23.27
2023-01-12T05:25:36.889Z,23.07
2023-01-12T05:28:04.777Z,23.69
2023-01-12T05:30:32.738Z,23.54
2023-01-12T05:32:59.636Z,23.85
2023-01-12T05:35:26.398Z,23.87
2023-01-12T05:37:56.483Z,23.98
2023-01-12T05:40:23.430Z,24.41
2023-01-12T05:43:09.935Z,24.20
2023-01-12T05:45:36.952Z,24.40
2023-01-12T05:48:04.129Z,24.77
2023-01-12T05:50:30.978Z,24.76
2023-01-12T05:53:10.398Z,24.91
2023-01-12T05:55:38.584Z,25.18
2023-01-12T05:58:05.641Z,24.95
2023-01-12T06:00:32.516Z,25.35
2023-01-12T06:02:59.384Z,25.11
2023-01-12T06:05:26.435Z,25.58
2023-01-12T06:07:53.189Z,25.43
2023-01-12T06:10:20.055Z,25.50
2023-01-12T06:13:08.987Z,25.48
2023-01-12T06:15:36.520Z,25.70
2023-01-12T06:18:03.543Z,25.81
2023-01-12T06:20:30.451Z,25.86
2023-01-12T06:23:01.812Z,26.04
2023-01-12T06:25:30.289Z,25.68
2023-01-12T06:27:57.181Z,26.14
2023-01-12T06:30:24.064Z,26.14
2023-01-12T06:32:53.759Z,26.25
2023-01-12T06:35:21.736Z,25.90
2023-01-12T06:37:48.845Z,26.05
2023-01-12T06:40:15.625Z,26.43
2023-01-12T06:42:42.492Z,26.37
2023-01-12T06:45:12.557Z,26.54
2023-01-12T06:47:49.672Z,26.36
2023-01-12T06:50:17.825Z,26.33
2023-01-12T06:52:45.097Z,26.36
2023-01-12T06:55:11.903Z,26.76
2023-01-12T06:57:38.709Z,26.71
2023-01-12T07:00:06.472Z,26.49
2023-01-12T07:02:34.273Z,26.80
2023-01-12T07:05:00.991Z,26.55
2023-01-12T07:07:27.739Z,26.83
2023-01-12T07:09:56.107Z,26.86
2023-01-12T07:12:24.010Z,26.87
2023-01-12T07:14:51.041Z,26.52
2023-01-12T07:17:19.196Z,26.70
2023-01-12T07:19:45.905Z,26.66
2023-01-12T07:22:12.623Z,26.49
2023-01-12T07:24:39.397Z,26.87
2023-01-12T07:27:06.580Z,26.89
2023-01-12T07:29:33.423Z,26.73
2023-01-12T07:32:01.833Z,26.97
2023-01-12T07:34:29.985Z,26.68
2023-01-12T07:36:56.634Z,26.88
2023-01-12T07:39:24.805Z,26.89
2023-01-12T07:42:10.475Z,26.92
2023-01-12T07:44:40.000Z,27.03
2023-01-12T07:47:09.550Z,26.99
2023-01-12T07:49:36.443Z,27.08
2023-01-12T07:52:03.248Z,26.92
2023-01-12T07:54:30.335Z,26.96
2023-01-12T07:56:58.127Z,26.90
2023-01-12T07:59:27.740Z,26.97
2023-01-12T08:01:55.662Z,26.93
2023-01-12T08:04:22.843Z,26.96
2023-01-12T08:06:49.667Z,26.57
2023-01-12T08:09:16.675Z,26.98
2023-01-12T08:11:43.373Z,26.80
2023-01-12T08:14:11.259Z,26.94
2023-01-12T08:16:39.573Z,26.68
2023-01-12T08:19:11.848Z,26.99
2023-01-12T08:21:45.992Z,26.75
2023-01-12T08:24:17.319Z,26.91
2023-01-12T08:26:44.521Z,26.86
2023-01-12T08:29:29.841Z,26.84
2023-01-12T08:31:59.425Z,26.89
2023-01-12T08:34:27.563Z,26.61
2023-01-12T08:36:54.896Z,26.83
2023-01-12T08:39:21.945Z,26.53
2023-01-12T08:41:48.887Z,26.76
2023-01-12T08:44:17.950Z,26.93
2023-01-12T08:46:48.735Z,27.03
2023-01-12T08:49:17.166Z,26.87
2023-01-12T08:51:44.255Z,26.47
2023-01-12T08:54:12.431Z,26.96
2023-01-12T08:56:39.332Z,27.03
2023-01-12T08:59:07.597Z,26.90
2023-01-12T09:01:35.812Z,26.92
2023-01-12T09:04:03.225Z,26.97
2023-01-12T09:06:35.703Z,26.56
2023-01-12T09:09:04.579Z,26.83
2023-01-12T09:11:31.548Z,26.82
2023-01-12T09:14:01.948Z,26.94
2023-01-12T09:16:31.213Z,26.63
2023-01-12T09:18:58.816Z,26.84
2023-01-12T09:21:27.026Z,26.99
2023-01-12T09:23:54.813Z,27.02
2023-01-12T09:26:31.814Z,26.94
2023-01-12T09:29:02.580Z,27.02
2023-01-12T09:31:30.794Z,26.44
2023-01-12T09:33:58.090Z,26.70
2023-01-12T09:36:26.429Z,26.61
2023-01-12T09:38:53.370Z,26.66
2023-01-12T09:41:41.727Z,26.93
2023-01-12T09:44:50.522Z,26.83
2023-01-12T09:47:19.213Z,26.92
2023-01-12T09:50:01.374Z,26.60
2023-01-12T09:53:07.262Z,26.85
2023-01-12T09:55:46.060Z,26.40
2023-01-12T09:58:50.633Z,26.91
2023-01-12T10:01:28.708Z,26.70
2023-01-12T10:03:57.652Z,26.79
2023-01-12T10:06:24.587Z,26.75
2023-01-12T10:08:52.522Z,26.67
2023-01-12T10:11:26.106Z,26.74
2023-01-12T10:13:52.849Z,26.72
2023-01-12T10:16:45.580Z,26.61
2023-01-12T10:19:28.229Z,26.61
2023-01-12T10:21:55.748Z,26.33
2023-01-12T10:24:23.721Z,26.25
2023-01-12T10:26:57.674Z,25.89
2023-01-12T10:29:24.507Z,25.29
2023-01-12T10:31:51.981Z,24.67
2023-01-12T10:34:19.326Z,24.21
2023-01-12T10:36:53.872Z,23.96
2023-01-12T10:39:33.283Z,23.84
2023-01-12T10:42:41.136Z,24.25
2023-01-12T10:45:10.637Z,24.50
2023-01-12T10:47:43.778Z,24.64
2023-01-12T10:50:28.047Z,24.77
2023-01-12T10:53:16.455Z,24.73
2023-01-12T10:55:43.228Z,24.91
2023-01-12T10:58:31.080Z,25.29
2023-01-12T11:00:58.581Z,25.11
2023-01-12T11:03:37.388Z,25.40
2023-01-12T11:06:27.091Z,25.30
2023-01-12T11:08:55.015Z,25.19
2023-01-12T11:11:33.434Z,25.48
2023-01-12T11:14:02.087Z,25.49
2023-01-12T11:16:35.597Z,25.04
2023-01-12T11:19:41.499Z,25.59
2023-01-12T11:22:13.144Z,25.56
2023-01-12T11:24:47.507Z,25.60
2023-01-12T11:27:18.053Z,25.54
2023-01-12T11:30:00.874Z,25.59
2023-01-12T11:32:39.747Z,25.61
2023-01-12T11:35:25.036Z,25.65
2023-01-12T11:37:54.016Z,25.45
2023-01-12T11:40:33.760Z,25.68
2023-01-12T11:43:32.724Z,25.62
2023-01-12T11:46:24.000Z,25.61
2023-01-12T11:49:22.489Z,25.53
2023-01-12T11:51:56.317Z,25.60
2023-01-12T11:54:23.083Z,25.45
2023-01-12T11:57:02.603Z,25.63
2023-01-12T12:00:00.485Z,25.77
2023-01-12T12:02:33.370Z,25.63
2023-01-12T12:05:05.845Z,25.84
2023-01-12T12:07:54.073Z,25.58
2023-01-12T12:10:23.893Z,25.72
2023-01-12T12:13:28.359Z,25.81
2023-01-12T12:16:17.654Z,25.74
2023-01-12T12:18:58.095Z,25.57
2023-01-12T12:21:30.545Z,25.77
2023-01-12T12:24:01.399Z,25.65
2023-01-12T12:26:50.000Z,25.52
2023-01-12T12:29:55.066Z,25.80
2023-01-12T12:32:43.082Z,25.80
2023-01-12T12:35:27.841Z,25.80
2023-01-12T12:38:05.896Z,25.78
2023-01-12T12:41:07.829Z,25.56
2023-01-12T12:43:54.247Z,25.62
2023-01-12T12:46:22.122Z,25.75
2023-01-12T12:49:01.991Z,25.72
2023-01-12T12:51:34.408Z,25.49
2023-01-12T12:54:06.389Z,25.65
2023-01-12T12:56:34.964Z,25.51
2023-01-12T12:59:04.821Z,25.60
2023-01-12T13:01:31.595Z,25.78
2023-01-12T13:03:59.851Z,25.77
2023-01-12T13:06:30.521Z,25.77
2023-01-12T13:09:25.184Z,25.74
2023-01-12T13:11:59.121Z,25.71
2023-01-12T13:14:29.009Z,25.77
2023-01-12T13:16:57.259Z,25.68
2023-01-12T13:20:10.636Z,25.82
2023-01-12T13:22:47.070Z,25.54
2023-01-12T13:25:16.909Z,25.78
2023-01-12T13:28:07.122Z,25.71
2023-01-12T13:30:35.135Z,25.75
2023-01-12T13:33:16.264Z,25.78
2023-01-12T13:35:46.759Z,25.78
2023-01-12T13:38:15.433Z,25.78
2023-01-12T13:40:42.699Z,25.62
2023-01-12T13:43:34.690Z,25.60
2023-01-12T13:46:05.273Z,25.68
2023-01-12T13:48:34.134Z,25.58
2023-01-12T13:51:07.731Z,25.70
2023-01-12T13:53:34.781Z,25.67
2023-01-12T13:56:08.328Z,25.60
2023-01-12T13:58:42.227Z,25.53
2023-01-12T14:01:23.349Z,25.78
2023-01-12T14:04:18.076Z,25.74
2023-01-12T14:07:14.798Z,25.53
2023-01-12T14:09:53.788Z,25.73
2023-01-12T14:12:47.723Z,25.75
2023-01-12T14:15:51.893Z,25.78
2023-01-12T14:18:22.228Z,25.60
2023-01-12T14:20:57.411Z,25.67
2023-01-12T14:23:27.718Z,25.68
2023-01-12T14:26:09.345Z,25.57
2023-01-12T14:28:37.573Z,25.23
2023-01-12T14:31:06.614Z,25.49
2023-01-12T14:33:35.490Z,25.20
2023-01-12T14:36:27.931Z,25.64
2023-01-12T14:38:56.026Z,25.51
2023-01-12T14:41:43.275Z,25.35
2023-01-12T14:44:40.206Z,25.22
2023-01-12T14:47:09.792Z,25.40
2023-01-12T14:49:37.593Z,25.36
2023-01-12T14:52:21.918Z,25.60
2023-01-12T14:54:48.911Z,25.51
2023-01-12T14:57:39.172Z,25.26
2023-01-12T15:00:07.411Z,25.55
2023-01-12T15:02:37.285Z,25.48
2023-01-12T15:05:10.420Z,25.69
2023-01-12T15:07:39.287Z,25.58
2023-01-12T15:10:14.829Z,25.61
2023-01-12T15:12:54.331Z,24.74
2023-01-12T15:15:27.404Z,24.20
2023-01-12T15:18:15.408Z,23.95
2023-01-12T15:21:02.050Z,24.23
2023-01-12T15:23:54.164Z,24.57
2023-01-12T15:26:21.921Z,24.47
2023-01-12T15:28:49.096Z,24.38
2023-01-12T15:31:28.111Z,24.33
2023-01-12T15:33:54.984Z,24.54
2023-01-12T15:36:22.741Z,24.83
2023-01-12T15:38:49.901Z,24.74
2023-01-12T15:41:39.923Z,24.88
2023-01-12T15:44:11.784Z,25.03
2023-01-12T15:46:38.449Z,24.93
2023-01-12T15:49:05.897Z,24.84
2023-01-12T15:51:33.199Z,24.81
2023-01-12T15:54:00.471Z,25.08
2023-01-12T15:56:27.274Z,24.93
2023-01-12T15:58:54.421Z,25.06
2023-01-12T16:01:22.850Z,25.03
2023-01-12T16:04:15.058Z,25.18
2023-01-12T16:06:37.849Z,25.11
2023-01-12T16:09:04.597Z,25.19
2023-01-12T16:11:39.879Z,25.23
2023-01-12T16:14:06.882Z,25.00
2023-01-12T16:16:34.744Z,25.20
2023-01-12T16:19:06.200Z,24.94
2023-01-12T16:21:35.431Z,25.08
2023-01-12T16:24:02.192Z,25.28
2023-01-12T16:26:29.429Z,25.22
2023-01-12T16:28:57.705Z,25.26
2023-01-12T16:31:25.634Z,25.23
2023-01-12T16:33:52.605Z,25.28
2023-01-12T16:36:21.986Z,24.83
2023-01-12T16:38:50.800Z,25.19
2023-01-12T16:41:22.288Z,25.19
2023-01-12T16:43:49.650Z,24.57
2023-01-12T16:46:17.538Z,25.07
2023-01-12T16:48:48.732Z,25.29
2023-01-12T16:51:16.759Z,25.22
2023-01-12T16:53:45.219Z,24.98
2023-01-12T16:56:13.103Z,25.08
2023-01-12T16:58:42.457Z,25.29
2023-01-12T17:01:13.618Z,25.39
2023-01-12T17:03:41.781Z,25.42
2023-01-12T17:06:13.537Z,25.52
2023-01-12T17:08:42.135Z,25.06
2023-01-12T17:11:10.668Z,25.41
2023-01-12T17:13:39.250Z,25.16
2023-01-12T17:16:10.430Z,25.10
2023-01-12T17:18:38.268Z,25.04
2023-01-12T17:21:11.948Z,25.11
2023-01-12T17:23:39.827Z,25.14
2023-01-12T17:26:28.198Z,25.17
2023-01-12T17:28:59.493Z,25.05
2023-01-12T17:31:26.641Z,25.18
2023-01-12T17:33:54.277Z,25.10
2023-01-12T17:36:22.245Z,25.27
2023-01-12T17:38:49.450Z,25.31
2023-01-12T17:41:34.870Z,24.98
2023-01-12T17:44:03.462Z,25.31
2023-01-12T17:46:31.762Z,25.41
2023-01-12T17:48:59.486Z,25.35
2023-01-12T17:51:26.643Z,25.36
2023-01-12T17:53:55.599Z,25.24
2023-01-12T17:56:24.871Z,25.37
2023-01-12T17:58:52.302Z,25.46
2023-01-12T18:01:19.578Z,25.46
2023-01-12T18:03:46.385Z,25.49
2023-01-12T18:06:18.530Z,25.48
2023-01-12T18:08:52.810Z,25.41
2023-01-12T18:11:20.039Z,25.40
2023-01-12T18:13:47.465Z,25.50
2023-01-12T18:16:14.936Z,25.29
2023-01-12T18:18:43.847Z,25.49
2023-01-12T18:21:12.533Z,25.40
2023-01-12T18:23:39.462Z,25.38
2023-01-12T18:26:07.597Z,25.39
2023-01-12T18:28:36.479Z,25.44
2023-01-12T18:31:16.780Z,25.54
2023-01-12T18:33:45.474Z,25.55
2023-01-12T18:36:16.694Z,25.58
2023-01-12T18:38:43.515Z,25.57
2023-01-12T18:41:29.546Z,25.53
2023-01-12T18:43:58.585Z,25.58
2023-01-12T18:46:47.735Z,25.55
2023-01-12T18:49:14.427Z,25.56
2023-01-12T18:51:59.406Z,25.61
2023-01-12T18:54:26.102Z,25.58
2023-01-12T18:56:52.818Z,25.61
2023-01-12T18:59:19.559Z,25.62
2023-01-12T19:01:46.285Z,25.61
2023-01-12T19:04:23.041Z,25.62
2023-01-12T19:07:03.476Z,25.61
2023-01-12T19:09:40.253Z,25.62
2023-01-12T19:12:08.530Z,25.67
2023-01-12T19:14:53.666Z,25.68
2023-01-12T19:17:32.988Z,25.64
2023-01-12T19:20:09.178Z,25.73
2023-01-12T19:22:55.841Z,25.70
2023-01-12T19:25:41.663Z,25.64
2023-01-12T19:28:31.092Z,25.64
2023-01-12T19:31:10.997Z,25.68
2023-01-12T19:33:42.695Z,25.71
2023-01-12T19:36:10.570Z,25.73
2023-01-12T19:38:40.479Z,25.65
2023-01-12T19:41:13.268Z,25.68
2023-01-12T19:43:45.000Z,25.70
2023-01-12T19:46:14.630Z,25.72
2023-01-12T19:48:41.832Z,25.72
2023-01-12T19:51:10.979Z,25.71
2023-01-12T19:53:38.427Z,25.73
2023-01-12T19:56:09.353Z,25.59
2023-01-12T19:58:36.234Z,25.70
2023-01-12T20:01:02.986Z,25.67
2023-01-12T20:03:29.733Z,25.70
2023-01-12T20:05:56.371Z,25.71
2023-01-12T20:08:24.506Z,25.68
2023-01-12T20:10:55.408Z,25.73
2023-01-12T20:13:22.164Z,25.74
2023-01-12T20:15:50.351Z,25.73
2023-01-12T20:18:18.246Z,25.68
2023-01-12T20:20:44.959Z,25.47
2023-01-12T20:23:12.064Z,24.77
2023-01-12T20:25:40.048Z,23.84
2023-01-12T20:28:07.056Z,23.54
2023-01-12T20:30:37.974Z,23.43
2023-01-12T20:33:06.408Z,23.53
2023-01-12T20:35:33.232Z,23.68
2023-01-12T20:38:00.110Z,23.84
2023-01-12T20:40:26.834Z,23.92
2023-01-12T20:42:53.478Z,24.11
2023-01-12T20:45:20.802Z,24.20
2023-01-12T20:47:47.729Z,24.31
2023-01-12T20:50:14.921Z,24.39
2023-01-12T20:52:41.566Z,24.47
2023-01-12T20:55:08.476Z,24.55
2023-01-12T20:57:41.494Z,24.53
2023-01-12T21:00:08.653Z,24.78
2023-01-12T21:02:35.805Z,24.73
2023-01-12T21:05:02.740Z,24.76
2023-01-12T21:07:29.468Z,24.79
2023-01-12T21:09:56.217Z,24.81
2023-01-12T21:12:22.930Z,24.79
2023-01-12T21:14:49.640Z,24.82
2023-01-12T21:17:17.650Z,24.83
2023-01-12T21:19:44.333Z,24.81
2023-01-12T21:22:12.082Z,24.86
2023-01-12T21:24:39.072Z,24.82
2023-01-12T21:27:05.702Z,24.85
2023-01-12T21:29:32.588Z,24.79
2023-01-12T21:32:02.230Z,24.84
2023-01-12T21:34:29.437Z,24.88
2023-01-12T21:36:56.093Z,24.84
2023-01-12T21:39:22.744Z,24.84
2023-01-12T21:42:07.723Z,24.88
2023-01-12T21:44:34.416Z,24.85
2023-01-12T21:47:01.467Z,24.88
2023-01-12T21:49:28.122Z,24.87
2023-01-12T21:51:54.735Z,24.86
2023-01-12T21:54:21.404Z,24.78
2023-01-12T21:56:48.046Z,24.88
2023-01-12T21:59:14.813Z,24.90
2023-01-12T22:01:41.535Z,24.74
2023-01-12T22:04:08.268Z,24.84
2023-01-12T22:06:34.992Z,24.69
2023-01-12T22:09:01.603Z,24.70
2023-01-12T22:11:28.353Z,24.81
2023-01-12T22:13:55.062Z,24.67
2023-01-12T22:16:21.837Z,24.64
2023-01-12T22:18:49.549Z,24.69
2023-01-12T22:21:16.941Z,24.79
2023-01-12T22:23:46.660Z,24.85
2023-01-12T22:26:14.042Z,24.60
2023-01-12T22:28:41.810Z,24.70
